createdAt,value
2018-01-05T00:01:02.440Z,2.03
2018-01-05T00:03:30.186Z,1.70
2018-01-05T00:05:57.934Z,1.50
2018-01-05T00:08:25.675Z,1.13
2018-01-05T00:10:53.119Z,2.10
2018-01-05T00:13:20.572Z,2.63
2018-01-05T00:15:48.019Z,1.43
2018-01-05T00:18:15.519Z,1.57
2018-01-05T00:20:43.109Z,1.80
2018-01-05T00:23:10.674Z,1.70
2018-01-05T00:25:38.570Z,1.90
2018-01-05T00:28:06.331Z,1.77
2018-01-05T00:30:34.340Z,1.90
2018-01-05T00:33:02.037Z,1.53
2018-01-05T00:35:29.622Z,1.50
2018-01-05T00:37:57.056Z,1.70
2018-01-05T00:40:24.846Z,1.30
2018-01-05T00:42:52.307Z,1.30
2018-01-05T00:45:20.367Z,2.03
2018-01-05T00:47:47.994Z,2.10
2018-01-05T00:50:15.463Z,1.47
2018-01-05T00:52:42.997Z,2.63
2018-01-05T00:55:10.819Z,1.80
2018-01-05T00:57:38.266Z,36.03
2018-01-05T01:00:05.971Z,1.80
2018-01-05T01:02:33.807Z,2.40
2018-01-05T01:05:01.571Z,1.43
2018-01-05T01:07:29.008Z,23.27
2018-01-05T01:09:56.658Z,1.50
2018-01-05T01:12:24.419Z,2.30
2018-01-05T01:14:51.935Z,1.50
2018-01-05T01:17:19.379Z,2.97
2018-01-05T01:19:47.090Z,1.40
2018-01-05T01:22:14.562Z,1.17
2018-01-05T01:24:42.334Z,2.90
2018-01-05T01:27:09.786Z,1.83
2018-01-05T01:29:37.222Z,2.30
2018-01-05T01:32:05.650Z,1.50
2018-01-05T01:34:33.375Z,1.87
2018-01-05T01:37:01.145Z,2.97
2018-01-05T01:39:29.043Z,6.40
2018-01-05T01:41:56.802Z,1.90
2018-01-05T01:44:24.233Z,2.77
2018-01-05T01:46:51.890Z,2.73
2018-01-05T01:49:19.327Z,2.60
2018-01-05T01:51:47.690Z,3.20
2018-01-05T01:54:15.314Z,3.33
2018-01-05T01:56:42.806Z,2.30
2018-01-05T01:59:10.243Z,3.20
2018-01-05T02:01:37.942Z,2.43
2018-01-05T02:04:05.383Z,2.70
2018-01-05T02:06:33.224Z,3.20
2018-01-05T02:09:01.291Z,3.40
2018-01-05T02:11:29.047Z,2.70
2018-01-05T02:13:56.494Z,2.27
2018-01-05T02:16:24.143Z,2.97
2018-01-05T02:18:51.630Z,3.00
2018-01-05T02:21:19.082Z,3.40
2018-01-05T02:23:46.647Z,2.87
2018-01-05T02:26:14.091Z,2.80
2018-01-05T02:28:41.762Z,3.07
2018-01-05T02:31:09.202Z,2.00
2018-01-05T02:33:36.951Z,2.77
2018-01-05T02:36:04.724Z,3.77
2018-01-05T02:38:32.174Z,3.60
2018-01-05T02:40:59.763Z,2.60
2018-01-05T02:43:27.193Z,4.00
2018-01-05T02:45:54.890Z,2.57
2018-01-05T02:48:22.442Z,4.57
2018-01-05T02:50:50.088Z,2.13
2018-01-05T02:53:17.885Z,2.07
2018-01-05T02:55:45.618Z,3.00
2018-01-05T02:58:13.358Z,3.07
2018-01-05T03:00:41.874Z,2.80
2018-01-05T03:03:09.946Z,2.37
2018-01-05T03:05:37.632Z,2.77
2018-01-05T03:08:05.058Z,2.00
2018-01-05T03:10:32.612Z,1.87
2018-01-05T03:13:00.266Z,1.90
2018-01-05T03:15:27.717Z,1.83
2018-01-05T03:17:55.178Z,2.30
2018-01-05T03:20:23.054Z,110.97
2018-01-05T03:22:50.702Z,2.60
2018-01-05T03:25:18.290Z,1.50
2018-01-05T03:27:45.930Z,1.87
2018-01-05T03:30:13.406Z,0.97
2018-01-05T03:32:40.878Z,1.93
2018-01-05T03:35:08.425Z,1.80
2018-01-05T03:37:36.369Z,1.77
2018-01-05T03:40:03.962Z,1.30
2018-01-05T03:42:32.524Z,1.30
2018-01-05T03:44:59.998Z,2.43
2018-01-05T03:47:27.510Z,1.70
2018-01-05T03:49:55.223Z,2.20
2018-01-05T03:52:22.682Z,1.93
2018-01-05T03:54:50.134Z,2.13
2018-01-05T03:57:17.662Z,1.43
2018-01-05T03:59:45.322Z,1.90
2018-01-05T04:02:12.914Z,1.40
2018-01-05T04:04:40.538Z,1.43
2018-01-05T04:07:08.006Z,2.37
2018-01-05T04:09:35.762Z,1.73
2018-01-05T04:12:03.229Z,2.30
2018-01-05T04:14:30.650Z,2.10
2018-01-05T04:16:59.011Z,2.57
2018-01-05T04:19:26.650Z,2.30
2018-01-05T04:21:54.094Z,2.10
2018-01-05T04:24:22.341Z,2.17
2018-01-05T04:26:50.866Z,2.37
2018-01-05T04:29:18.633Z,2.03
2018-01-05T04:31:46.081Z,2.20
2018-01-05T04:34:14.123Z,1.57
2018-01-05T04:36:42.235Z,1.93
2018-01-05T04:39:09.886Z,1.47
2018-01-05T04:41:37.451Z,0.70
2018-01-05T04:44:04.942Z,1.10
2018-01-05T04:46:32.938Z,1.73
2018-01-05T04:49:00.682Z,1.97
2018-01-05T04:51:28.378Z,1.33
2018-01-05T04:53:55.970Z,102.17
2018-01-05T04:56:23.733Z,160.03
2018-01-05T04:58:51.182Z,40.80
2018-01-05T05:01:18.854Z,1.20
2018-01-05T05:03:46.279Z,2.90
2018-01-05T05:06:13.866Z,1.30
2018-01-05T05:08:41.625Z,1.43
2018-01-05T05:11:09.308Z,1.77
2018-01-05T05:13:37.158Z,3.03
2018-01-05T05:16:05.202Z,2.87
2018-01-05T05:18:32.625Z,3.63
2018-01-05T05:21:00.447Z,66.03
2018-01-05T05:23:28.667Z,1.30
2018-01-05T05:25:56.202Z,2.60
2018-01-05T05:28:23.666Z,4.97
2018-01-05T05:30:51.375Z,5.63
2018-01-05T05:33:18.879Z,2.40
2018-01-05T05:35:46.587Z,2.30
2018-01-05T05:38:14.037Z,1.90
2018-01-05T05:40:42.873Z,53.30
2018-01-05T05:43:10.506Z,1.80
2018-01-05T05:45:38.094Z,18.80
2018-01-05T05:48:05.849Z,4.07
2018-01-05T05:50:33.808Z,1.33
2018-01-05T05:53:01.293Z,8.77
2018-01-05T05:55:28.729Z,1.90
2018-01-05T05:57:56.266Z,56.50
2018-01-05T06:00:23.977Z,144.03
2018-01-05T06:02:51.834Z,142.17
2018-01-05T06:05:19.498Z,169.13
2018-01-05T06:07:46.949Z,131.90
2018-01-05T06:10:14.418Z,159.27
2018-01-05T06:12:42.262Z,99.00
2018-01-05T06:15:09.907Z,168.27
2018-01-05T06:17:37.386Z,102.10
2018-01-05T06:20:04.840Z,129.63
2018-01-05T06:22:32.713Z,120.17
2018-01-05T06:25:00.762Z,92.97
2018-01-05T06:27:28.731Z,92.47
2018-01-05T06:29:56.373Z,92.03
2018-01-05T06:32:24.385Z,91.27
2018-01-05T06:34:52.154Z,92.80
2018-01-05T06:37:19.917Z,89.07
2018-01-05T06:39:47.345Z,92.77
2018-01-05T06:42:15.448Z,89.57
2018-01-05T06:44:43.258Z,89.17
2018-01-05T06:47:11.145Z,93.00
2018-01-05T06:49:38.738Z,88.23
2018-01-05T06:52:06.506Z,90.37
2018-01-05T06:54:33.942Z,93.10
2018-01-05T06:57:01.398Z,94.70
2018-01-05T06:59:29.482Z,88.77
2018-01-05T07:01:57.757Z,88.53
2018-01-05T07:04:25.218Z,88.33
2018-01-05T07:06:52.673Z,86.07
2018-01-05T07:09:20.112Z,92.33
2018-01-05T07:11:48.003Z,93.50
2018-01-05T07:14:15.450Z,95.10
2018-01-05T07:16:43.400Z,93.30
2018-01-05T07:19:10.869Z,94.20
2018-01-05T07:21:38.614Z,95.90
2018-01-05T07:24:06.190Z,100.63
2018-01-05T07:26:33.849Z,97.30
2018-01-05T07:29:01.610Z,101.53
2018-01-05T07:31:29.357Z,107.10
2018-01-05T07:33:57.288Z,102.93
2018-01-05T07:36:24.827Z,103.37
2018-01-05T07:38:52.655Z,97.67
2018-01-05T07:41:20.249Z,100.70
2018-01-05T07:43:47.889Z,91.77
2018-01-05T07:46:15.662Z,102.57
2018-01-05T07:48:43.409Z,99.07
2018-01-05T07:51:10.870Z,100.67
2018-01-05T07:53:38.331Z,100.10
2018-01-05T07:56:05.778Z,88.40
2018-01-05T07:58:33.249Z,94.60
2018-01-05T08:01:00.693Z,91.57
2018-01-05T08:03:28.148Z,90.13
2018-01-05T08:05:55.610Z,94.00
2018-01-05T08:08:23.190Z,90.63
2018-01-05T08:10:50.966Z,90.00
2018-01-05T08:13:18.736Z,120.57
2018-01-05T08:15:46.342Z,128.03
2018-01-05T08:18:14.798Z,97.93
2018-01-05T08:20:42.634Z,96.50
2018-01-05T08:23:10.710Z,100.83
2018-01-05T08:25:38.342Z,100.10
2018-01-05T08:28:07.041Z,102.90
2018-01-05T08:30:34.790Z,101.37
2018-01-05T08:33:02.560Z,104.73
2018-01-05T08:35:30.009Z,110.60
2018-01-05T08:37:57.456Z,118.83
2018-01-05T08:40:24.961Z,102.30
2018-01-05T08:42:52.498Z,100.17
2018-01-05T08:45:20.139Z,100.17
2018-01-05T08:47:47.683Z,153.67
2018-01-05T08:50:15.380Z,99.30
2018-01-05T08:52:42.847Z,102.37
2018-01-05T08:55:10.413Z,102.00
2018-01-05T08:57:38.103Z,94.90
2018-01-05T09:00:05.550Z,97.10
2018-01-05T09:02:33.005Z,102.90
2018-01-05T09:05:00.458Z,105.47
2018-01-05T09:07:27.923Z,99.47
2018-01-05T09:09:55.481Z,100.17
2018-01-05T09:12:23.235Z,98.80
2018-01-05T09:14:50.990Z,118.90
2018-01-05T09:17:19.103Z,115.10
2018-01-05T09:19:46.734Z,118.10
2018-01-05T09:22:14.593Z,153.37
2018-01-05T09:24:42.055Z,118.37
2018-01-05T09:27:09.751Z,115.87
2018-01-05T09:29:37.282Z,121.90
2018-01-05T09:32:05.044Z,112.80
2018-01-05T09:34:32.791Z,115.43
2018-01-05T09:37:00.982Z,121.63
2018-01-05T09:39:28.557Z,151.80
2018-01-05T09:41:56.266Z,149.90
2018-01-05T09:44:23.853Z,138.27
2018-01-05T09:46:51.487Z,139.63
2018-01-05T09:49:19.038Z,117.07
2018-01-05T09:51:46.482Z,117.87
2018-01-05T09:54:14.730Z,117.63
2018-01-05T09:56:42.365Z,112.47
2018-01-05T09:59:10.446Z,112.17
2018-01-05T10:01:38.387Z,116.23
2018-01-05T10:04:05.970Z,117.17
2018-01-05T10:06:33.734Z,121.57
2018-01-05T10:09:01.246Z,115.87
2018-01-05T10:11:28.846Z,114.97
2018-01-05T10:13:56.318Z,120.77
2018-01-05T10:16:24.174Z,119.90
2018-01-05T10:18:51.621Z,120.27
2018-01-05T10:21:19.590Z,122.40
2018-01-05T10:23:47.039Z,124.67
2018-01-05T10:26:14.802Z,121.17
2018-01-05T10:28:42.249Z,116.20
2018-01-05T10:31:09.713Z,118.33
2018-01-05T10:33:37.603Z,118.87
2018-01-05T10:36:05.390Z,116.73
2018-01-05T10:38:33.010Z,117.50
2018-01-05T10:41:00.462Z,118.40
2018-01-05T10:43:28.022Z,116.37
2018-01-05T10:45:55.798Z,116.20
2018-01-05T10:48:23.257Z,117.83
2018-01-05T10:50:51.038Z,117.30
2018-01-05T10:53:18.782Z,128.10
2018-01-05T10:55:46.433Z,116.77
2018-01-05T10:58:13.885Z,113.40
2018-01-05T11:00:41.506Z,116.27
2018-01-05T11:03:08.934Z,118.70
2018-01-05T11:05:36.864Z,113.70
2018-01-05T11:08:05.094Z,120.67
2018-01-05T11:10:32.850Z,116.23
2018-01-05T11:13:00.487Z,113.20
2018-01-05T11:15:28.318Z,116.63
2018-01-05T11:17:55.762Z,113.57
2018-01-05T11:20:23.266Z,116.87
2018-01-05T11:22:50.918Z,112.90
2018-01-05T11:25:18.819Z,117.00
2018-01-05T11:27:46.274Z,118.57
2018-01-05T11:30:14.210Z,116.13
2018-01-05T11:32:41.798Z,115.80
2018-01-05T11:35:09.254Z,116.17
2018-01-05T11:37:36.894Z,113.50
2018-01-05T11:40:04.670Z,115.70
2018-01-05T11:42:32.414Z,116.10
2018-01-05T11:44:59.944Z,134.47
2018-01-05T11:47:27.602Z,153.00
2018-01-05T11:49:56.054Z,132.20
2018-01-05T11:52:23.699Z,122.77
2018-01-05T11:54:51.244Z,122.60
2018-01-05T11:57:19.130Z,122.37
2018-01-05T11:59:46.594Z,138.40
2018-01-05T12:02:14.663Z,133.40
2018-01-05T12:04:42.608Z,130.33
2018-01-05T12:07:10.053Z,127.07
2018-01-05T12:09:37.534Z,126.17
2018-01-05T12:12:05.111Z,116.93
2018-01-05T12:14:33.046Z,125.90
2018-01-05T12:17:00.638Z,128.60
2018-01-05T12:19:28.269Z,120.27
2018-01-05T12:21:55.862Z,122.43
2018-01-05T12:24:23.623Z,122.27
2018-01-05T12:26:51.382Z,129.70
2018-01-05T12:29:19.147Z,124.60
2018-01-05T12:31:46.914Z,123.40
2018-01-05T12:34:14.551Z,128.23
2018-01-05T12:36:42.310Z,129.53
2018-01-05T12:39:10.170Z,123.67
2018-01-05T12:41:37.834Z,133.90
2018-01-05T12:44:05.308Z,134.73
2018-01-05T12:46:32.804Z,138.00
2018-01-05T12:49:00.323Z,139.33
2018-01-05T12:51:28.035Z,137.57
2018-01-05T12:53:55.490Z,144.77
2018-01-05T12:56:23.325Z,138.50
2018-01-05T12:58:50.978Z,141.10
2018-01-05T13:01:18.513Z,139.63
2018-01-05T13:03:46.225Z,138.60
2018-01-05T13:06:13.665Z,134.33
2018-01-05T13:08:41.226Z,154.80
2018-01-05T13:11:10.223Z,137.87
2018-01-05T13:13:37.854Z,143.17
2018-01-05T13:16:05.329Z,139.10
2018-01-05T13:18:32.881Z,138.13
2018-01-05T13:21:00.522Z,134.10
2018-01-05T13:23:27.961Z,138.97
2018-01-05T13:25:56.698Z,138.67
2018-01-05T13:28:24.136Z,136.93
2018-01-05T13:30:52.032Z,140.13
2018-01-05T13:33:19.971Z,137.60
2018-01-05T13:35:47.826Z,134.80
2018-01-05T13:38:15.494Z,131.20
2018-01-05T13:40:43.387Z,130.37
2018-01-05T13:43:11.021Z,133.23
2018-01-05T13:45:38.518Z,136.10
2018-01-05T13:48:06.246Z,133.67
2018-01-05T13:50:34.010Z,136.47
2018-01-05T13:53:01.983Z,130.70
2018-01-05T13:55:29.586Z,133.50
2018-01-05T13:57:57.026Z,130.90
2018-01-05T14:00:24.590Z,132.00
2018-01-05T14:02:52.214Z,134.07
2018-01-05T14:05:20.002Z,136.93
2018-01-05T14:07:47.757Z,135.77
2018-01-05T14:10:15.207Z,137.70
2018-01-05T14:12:42.794Z,134.60
2018-01-05T14:15:10.354Z,132.57
2018-01-05T14:17:38.015Z,138.23
2018-01-05T14:20:05.470Z,137.07
2018-01-05T14:22:33.134Z,134.30
2018-01-05T14:25:00.582Z,133.23
2018-01-05T14:27:28.063Z,127.80
2018-01-05T14:29:55.506Z,133.33
2018-01-05T14:32:23.066Z,131.83
2018-01-05T14:34:51.137Z,137.37
2018-01-05T14:37:18.598Z,128.07
2018-01-05T14:39:46.069Z,129.40
2018-01-05T14:42:13.510Z,129.70
2018-01-05T14:44:41.190Z,133.17
2018-01-05T14:47:09.034Z,125.57
2018-01-05T14:49:36.894Z,130.17
2018-01-05T14:52:04.479Z,127.03
2018-01-05T14:54:32.332Z,129.43
2018-01-05T14:56:59.998Z,129.73
2018-01-05T14:59:27.854Z,130.10
2018-01-05T15:01:55.513Z,128.87
2018-01-05T15:04:23.886Z,127.00
2018-01-05T15:06:51.410Z,128.27
2018-01-05T15:09:18.854Z,125.33
2018-01-05T15:11:46.303Z,126.40
2018-01-05T15:14:13.966Z,122.37
2018-01-05T15:16:41.766Z,120.77
2018-01-05T15:19:09.254Z,125.90
2018-01-05T15:21:37.005Z,125.17
2018-01-05T15:24:04.582Z,125.33
2018-01-05T15:26:32.210Z,125.77
2018-01-05T15:28:59.665Z,125.90
2018-01-05T15:31:27.137Z,123.90
2018-01-05T15:33:54.726Z,123.53
2018-01-05T15:36:22.289Z,131.03
2018-01-05T15:38:49.734Z,128.17
2018-01-05T15:41:17.694Z,130.00
2018-01-05T15:43:45.330Z,132.00
2018-01-05T15:46:12.794Z,129.90
2018-01-05T15:48:40.378Z,125.50
2018-01-05T15:51:07.838Z,125.67
2018-01-05T15:53:35.460Z,124.20
2018-01-05T15:56:03.239Z,132.47
2018-01-05T15:58:30.823Z,126.17
2018-01-05T16:00:58.587Z,125.50
2018-01-05T16:03:26.349Z,128.20
2018-01-05T16:05:53.991Z,133.00
2018-01-05T16:08:21.874Z,135.00
2018-01-05T16:10:49.515Z,127.77
2018-01-05T16:13:17.891Z,134.73
2018-01-05T16:15:45.455Z,137.40
2018-01-05T16:18:13.115Z,131.47
2018-01-05T16:20:40.861Z,134.57
2018-01-05T16:23:08.463Z,135.37
2018-01-05T16:25:36.221Z,129.37
2018-01-05T16:28:03.667Z,126.77
2018-01-05T16:30:31.125Z,128.73
2018-01-05T16:32:59.214Z,125.67
2018-01-05T16:35:26.955Z,127.97
2018-01-05T16:37:54.924Z,121.67
2018-01-05T16:40:22.382Z,118.83
2018-01-05T16:42:49.962Z,121.47
2018-01-05T16:45:17.406Z,122.47
2018-01-05T16:47:45.062Z,123.60
2018-01-05T16:50:12.950Z,124.50
2018-01-05T16:52:40.886Z,125.80
2018-01-05T16:55:08.655Z,120.77
2018-01-05T16:57:36.407Z,121.57
2018-01-05T17:00:04.002Z,122.57
2018-01-05T17:02:31.643Z,134.97
2018-01-05T17:04:59.402Z,122.50
2018-01-05T17:07:26.866Z,123.07
2018-01-05T17:09:54.311Z,122.67
2018-01-05T17:12:21.760Z,122.20
2018-01-05T17:14:50.160Z,116.57
2018-01-05T17:17:17.614Z,121.80
2018-01-05T17:19:45.194Z,118.10
2018-01-05T17:22:12.866Z,123.83
2018-01-05T17:24:40.434Z,120.47
2018-01-05T17:27:08.057Z,127.67
2018-01-05T17:29:35.618Z,132.20
2018-01-05T17:32:03.306Z,126.87
2018-01-05T17:34:30.727Z,130.50
2018-01-05T17:36:58.286Z,126.27
2018-01-05T17:39:26.083Z,128.47
2018-01-05T17:41:53.823Z,128.30
2018-01-05T17:44:21.700Z,134.30
2018-01-05T17:46:49.380Z,124.67
2018-01-05T17:49:17.141Z,130.43
2018-01-05T17:51:44.773Z,125.13
2018-01-05T17:54:12.220Z,121.77
2018-01-05T17:56:39.666Z,124.50
2018-01-05T17:59:08.071Z,126.20
2018-01-05T18:01:35.558Z,126.50
2018-01-05T18:04:03.287Z,127.43
2018-01-05T18:06:30.783Z,124.80
2018-01-05T18:08:58.643Z,133.30
2018-01-05T18:11:26.330Z,131.80
2018-01-05T18:13:54.033Z,129.07
2018-01-05T18:16:21.506Z,123.80
2018-01-05T18:18:49.368Z,115.80
2018-01-05T18:21:17.038Z,118.90
2018-01-05T18:23:44.514Z,126.73
2018-01-05T18:26:11.993Z,127.40
2018-01-05T18:28:39.439Z,121.07
2018-01-05T18:31:07.291Z,122.00
2018-01-05T18:33:34.774Z,119.87
2018-01-05T18:36:02.538Z,121.40
2018-01-05T18:38:30.278Z,113.67
2018-01-05T18:40:57.723Z,113.17
2018-01-05T18:43:25.498Z,110.90
2018-01-05T18:45:53.569Z,121.70
2018-01-05T18:48:21.217Z,121.03
2018-01-05T18:50:48.662Z,150.03
2018-01-05T18:53:16.549Z,130.67
2018-01-05T18:55:44.254Z,120.93
2018-01-05T18:58:11.949Z,116.60
2018-01-05T19:00:39.538Z,120.50
2018-01-05T19:03:07.166Z,104.20
2018-01-05T19:05:34.644Z,72.27
2018-01-05T19:08:02.287Z,161.30
2018-01-05T19:10:29.953Z,5.67
2018-01-05T19:12:57.479Z,3.10
2018-01-05T19:15:25.198Z,4.13
2018-01-05T19:17:52.966Z,3.53
2018-01-05T19:20:21.041Z,151.40
2018-01-05T19:22:48.500Z,153.17
2018-01-05T19:25:16.454Z,118.10
2018-01-05T19:27:44.026Z,3.53
2018-01-05T19:30:11.717Z,111.30
2018-01-05T19:32:39.189Z,105.90
2018-01-05T19:35:07.015Z,134.40
2018-01-05T19:37:34.979Z,111.60
2018-01-05T19:40:02.418Z,110.03
2018-01-05T19:42:29.906Z,153.27
2018-01-05T19:44:57.350Z,149.03
2018-01-05T19:47:26.018Z,123.00
2018-01-05T19:49:53.602Z,153.13
2018-01-05T19:52:21.364Z,119.00
2018-01-05T19:54:48.993Z,114.53
2018-01-05T19:57:16.766Z,123.97
2018-01-05T19:59:44.236Z,124.93
2018-01-05T20:02:11.806Z,117.40
2018-01-05T20:04:39.250Z,116.20
2018-01-05T20:07:07.282Z,119.70
2018-01-05T20:09:35.095Z,116.90
2018-01-05T20:12:02.570Z,110.20
2018-01-05T20:14:30.017Z,115.97
2018-01-05T20:16:57.574Z,149.87
2018-01-05T20:19:25.130Z,121.53
2018-01-05T20:21:52.998Z,152.23
2018-01-05T20:24:21.042Z,140.87
2018-01-05T20:26:48.739Z,193.60
2018-01-05T20:29:16.236Z,143.33
2018-01-05T20:31:43.921Z,123.57
2018-01-05T20:34:11.518Z,167.03
2018-01-05T20:36:39.466Z,160.77
2018-01-05T20:39:06.916Z,39.43
2018-01-05T20:41:34.673Z,4.00
2018-01-05T20:44:02.258Z,6.80
2018-01-05T20:46:30.546Z,87.57
2018-01-05T20:48:57.986Z,3.27
2018-01-05T20:51:25.426Z,5.43
2018-01-05T20:53:52.984Z,159.10
2018-01-05T20:56:20.430Z,160.23
2018-01-05T20:58:48.227Z,154.50
2018-01-05T21:01:15.670Z,154.37
2018-01-05T21:03:43.449Z,154.40
2018-01-05T21:06:10.894Z,151.93
2018-01-05T21:08:38.960Z,156.70
2018-01-05T21:11:06.393Z,154.03
2018-01-05T21:13:34.138Z,151.60
2018-01-05T21:16:01.969Z,153.30
2018-01-05T21:18:29.619Z,156.30
2018-01-05T21:20:57.192Z,153.37
2018-01-05T21:23:24.643Z,151.57
2018-01-05T21:25:52.238Z,164.37
2018-01-05T21:28:20.176Z,155.80
2018-01-05T21:30:47.818Z,157.00
2018-01-05T21:33:15.389Z,153.70
2018-01-05T21:35:43.025Z,152.07
2018-01-05T21:38:10.522Z,151.07
2018-01-05T21:40:37.961Z,146.47
2018-01-05T21:43:05.698Z,158.63
2018-01-05T21:45:33.138Z,156.37
2018-01-05T21:48:01.367Z,161.83
2018-01-05T21:50:29.441Z,151.60
2018-01-05T21:52:56.898Z,150.50
2018-01-05T21:55:24.662Z,149.60
2018-01-05T21:57:52.342Z,148.20
2018-01-05T22:00:20.191Z,153.17
2018-01-05T22:02:47.642Z,153.00
2018-01-05T22:05:15.086Z,150.47
2018-01-05T22:07:43.173Z,148.47
2018-01-05T22:10:10.758Z,149.57
2018-01-05T22:12:38.698Z,145.27
2018-01-05T22:15:06.466Z,147.70
2018-01-05T22:17:33.938Z,146.17
2018-01-05T22:20:01.694Z,143.17
2018-01-05T22:22:29.137Z,138.20
2018-01-05T22:24:56.810Z,140.90
2018-01-05T22:27:24.414Z,140.10
2018-01-05T22:29:52.438Z,145.57
2018-01-05T22:32:20.153Z,141.10
2018-01-05T22:34:48.155Z,143.53
2018-01-05T22:37:16.044Z,144.13
2018-01-05T22:39:43.487Z,143.43
2018-01-05T22:42:11.263Z,142.80
2018-01-05T22:44:38.897Z,145.70
2018-01-05T22:47:07.705Z,142.87
2018-01-05T22:49:35.778Z,140.30
2018-01-05T22:52:03.223Z,141.23
2018-01-05T22:54:31.314Z,142.07
2018-01-05T22:56:59.050Z,140.90
2018-01-05T22:59:26.805Z,141.47
2018-01-05T23:01:54.606Z,139.27
2018-01-05T23:04:22.238Z,142.23
2018-01-05T23:06:49.828Z,139.57
2018-01-05T23:09:17.581Z,138.13
2018-01-05T23:11:45.034Z,138.07
2018-01-05T23:14:12.818Z,142.60
2018-01-05T23:16:40.481Z,139.43
2018-01-05T23:19:08.350Z,138.97
2018-01-05T23:21:35.790Z,140.80
2018-01-05T23:24:03.468Z,143.43
2018-01-05T23:26:30.970Z,139.23
2018-01-05T23:28:58.642Z,138.93
2018-01-05T23:31:26.326Z,138.30
2018-01-05T23:33:53.884Z,137.30
2018-01-05T23:36:21.774Z,137.77
2018-01-05T23:38:49.446Z,138.50
2018-01-05T23:41:17.298Z,135.60
2018-01-05T23:43:44.970Z,137.60
2018-01-05T23:46:12.521Z,136.67
2018-01-05T23:48:40.145Z,141.57
2018-01-05T23:51:07.638Z,142.63
2018-01-05T23:53:35.097Z,143.73
2018-01-05T23:56:02.953Z,138.00
2018-01-05T23:58:30.529Z,143.73
